sensor_id;sensor_type;location;lat;lon;timestamp;noise_LAeq;noise_LA_min;noise_LA_max;noise_LA01;noise_LA95
38366;Laerm;943;51.568;6.998;2023-04-15T00:01:46;41.18;36.17;47.66;;
38366;Laerm;943;51.568;6.998;2023-04-15T00:04:15;41.92;36.63;56.10;;
38366;Laerm;943;51.568;6.998;2023-04-15T00:06:51;42.74;35.87;55.80;;
38366;Laerm;943;51.568;6.998;2023-04-15T00:09:21;42.52;38.48;52.25;;
38366;Laerm;943;51.568;6.998;2023-04-15T00:11:51;41.45;37.30;48.95;;
38366;Laerm;943;51.568;6.998;2023-04-15T00:14:20;40.47;35.99;46.80;;
38366;Laerm;943;51.568;6.998;2023-04-15T00:16:50;41.98;37.18;49.97;;
38366;Laerm;943;51.568;6.998;2023-04-15T00:19:24;40.25;35.65;47.88;;
38366;Laerm;943;51.568;6.998;2023-04-15T00:21:53;41.31;35.74;50.71;;
38366;Laerm;943;51.568;6.998;2023-04-15T00:24:22;41.68;37.64;46.11;;
38366;Laerm;943;51.568;6.998;2023-04-15T00:26:51;42.75;38.52;50.42;;
38366;Laerm;943;51.568;6.998;2023-04-15T00:29:20;41.22;36.16;50.64;;
38366;Laerm;943;51.568;6.998;2023-04-15T00:31:48;41.93;35.38;56.76;;
38366;Laerm;943;51.568;6.998;2023-04-15T00:34:16;42.65;37.04;49.50;;
38366;Laerm;943;51.568;6.998;2023-04-15T00:36:44;42.02;36.09;49.59;;
38366;Laerm;943;51.568;6.998;2023-04-15T00:39:11;41.82;37.02;49.69;;
38366;Laerm;943;51.568;6.998;2023-04-15T00:41:39;42.80;37.46;53.35;;
38366;Laerm;943;51.568;6.998;2023-04-15T00:44:08;40.59;36.04;46.20;;
38366;Laerm;943;51.568;6.998;2023-04-15T00:46:38;42.15;37.23;53.19;;
38366;Laerm;943;51.568;6.998;2023-04-15T00:49:06;42.39;37.60;48.61;;
38366;Laerm;943;51.568;6.998;2023-04-15T00:51:34;41.38;35.99;50.04;;
38366;Laerm;943;51.568;6.998;2023-04-15T00:54:07;43.07;38.06;49.83;;
38366;Laerm;943;51.568;6.998;2023-04-15T00:56:37;42.74;37.44;50.04;;
38366;Laerm;943;51.568;6.998;2023-04-15T00:59:06;43.71;38.23;52.70;;
38366;Laerm;943;51.568;6.998;2023-04-15T01:01:37;42.28;36.94;49.78;;
38366;Laerm;943;51.568;6.998;2023-04-15T01:04:05;41.24;35.99;51.76;;
38366;Laerm;943;51.568;6.998;2023-04-15T01:06:33;41.54;36.80;53.40;;
38366;Laerm;943;51.568;6.998;2023-04-15T01:09:01;42.88;36.78;52.92;;
38366;Laerm;943;51.568;6.998;2023-04-15T01:11:31;40.81;36.22;52.38;;
38366;Laerm;943;51.568;6.998;2023-04-15T01:14:02;43.33;34.95;51.34;;
38366;Laerm;943;51.568;6.998;2023-04-15T01:16:30;41.85;35.08;49.84;;
38366;Laerm;943;51.568;6.998;2023-04-15T01:18:58;42.65;36.25;49.67;;
38366;Laerm;943;51.568;6.998;2023-04-15T01:21:26;41.71;36.11;48.10;;
38366;Laerm;943;51.568;6.998;2023-04-15T01:23:55;44.10;38.96;53.76;;
38366;Laerm;943;51.568;6.998;2023-04-15T01:26:25;41.78;36.91;51.34;;
38366;Laerm;943;51.568;6.998;2023-04-15T01:28:53;41.98;36.69;49.44;;
38366;Laerm;943;51.568;6.998;2023-04-15T01:31:21;44.10;35.18;53.75;;
38366;Laerm;943;51.568;6.998;2023-04-15T01:33:49;40.98;36.92;48.50;;
38366;Laerm;943;51.568;6.998;2023-04-15T01:36:17;41.00;36.59;49.24;;
38366;Laerm;943;51.568;6.998;2023-04-15T01:38:45;39.18;34.39;45.72;;
38366;Laerm;943;51.568;6.998;2023-04-15T01:41:14;40.99;35.20;46.86;;
38366;Laerm;943;51.568;6.998;2023-04-15T01:43:41;40.65;35.51;47.80;;
38366;Laerm;943;51.568;6.998;2023-04-15T01:46:09;40.68;36.73;45.89;;
38366;Laerm;943;51.568;6.998;2023-04-15T01:48:37;41.00;36.99;48.56;;
38366;Laerm;943;51.568;6.998;2023-04-15T01:51:05;41.66;36.53;51.55;;
38366;Laerm;943;51.568;6.998;2023-04-15T01:53:32;41.45;37.47;46.87;;
38366;Laerm;943;51.568;6.998;2023-04-15T01:56:02;39.84;35.76;45.90;;
38366;Laerm;943;51.568;6.998;2023-04-15T01:58:30;41.36;37.68;48.50;;
38366;Laerm;943;51.568;6.998;2023-04-15T02:00:58;40.50;37.38;45.33;;
38366;Laerm;943;51.568;6.998;2023-04-15T02:03:27;40.70;36.67;45.46;;
38366;Laerm;943;51.568;6.998;2023-04-15T02:05:56;41.81;38.46;47.11;;
38366;Laerm;943;51.568;6.998;2023-04-15T02:08:24;40.22;36.16;50.49;;
38366;Laerm;943;51.568;6.998;2023-04-15T02:10:51;43.58;38.10;51.22;;
38366;Laerm;943;51.568;6.998;2023-04-15T02:13:19;42.31;36.56;49.66;;
38366;Laerm;943;51.568;6.998;2023-04-15T02:15:49;41.88;37.37;48.51;;
38366;Laerm;943;51.568;6.998;2023-04-15T02:18:19;43.76;39.02;52.07;;
38366;Laerm;943;51.568;6.998;2023-04-15T02:20:46;43.46;37.43;52.01;;
38366;Laerm;943;51.568;6.998;2023-04-15T02:23:15;42.20;34.98;52.38;;
38366;Laerm;943;51.568;6.998;2023-04-15T02:25:43;43.58;38.66;52.57;;
38366;Laerm;943;51.568;6.998;2023-04-15T02:28:21;43.05;36.33;51.09;;
38366;Laerm;943;51.568;6.998;2023-04-15T02:30:49;42.84;37.47;49.74;;
38366;Laerm;943;51.568;6.998;2023-04-15T02:33:21;42.90;37.82;53.38;;
38366;Laerm;943;51.568;6.998;2023-04-15T02:35:48;42.90;37.37;48.34;;
38366;Laerm;943;51.568;6.998;2023-04-15T02:38:16;43.56;36.53;51.17;;
38366;Laerm;943;51.568;6.998;2023-04-15T02:40:44;45.75;38.60;55.65;;
38366;Laerm;943;51.568;6.998;2023-04-15T02:43:12;41.48;36.56;50.56;;
38366;Laerm;943;51.568;6.998;2023-04-15T02:45:40;43.91;38.09;56.62;;
38366;Laerm;943;51.568;6.998;2023-04-15T02:48:10;44.58;38.85;54.66;;
38366;Laerm;943;51.568;6.998;2023-04-15T02:50:37;45.04;40.25;52.60;;
38366;Laerm;943;51.568;6.998;2023-04-15T02:53:09;43.84;37.32;50.94;;
38366;Laerm;943;51.568;6.998;2023-04-15T02:55:36;42.79;37.59;52.17;;
38366;Laerm;943;51.568;6.998;2023-04-15T02:58:04;42.31;37.92;51.69;;
38366;Laerm;943;51.568;6.998;2023-04-15T03:00:33;46.89;39.51;69.29;;
38366;Laerm;943;51.568;6.998;2023-04-15T03:03:04;46.78;40.54;61.27;;
38366;Laerm;943;51.568;6.998;2023-04-15T03:05:33;48.14;39.94;65.77;;
38366;Laerm;943;51.568;6.998;2023-04-15T03:08:03;48.71;39.80;64.00;;
38366;Laerm;943;51.568;6.998;2023-04-15T03:10:31;49.51;39.36;67.17;;
38366;Laerm;943;51.568;6.998;2023-04-15T03:13:03;51.06;42.30;69.31;;
38366;Laerm;943;51.568;6.998;2023-04-15T03:15:32;48.87;40.41;66.20;;
38366;Laerm;943;51.568;6.998;2023-04-15T03:18:00;45.26;41.43;51.55;;
38366;Laerm;943;51.568;6.998;2023-04-15T03:20:28;45.26;38.79;50.75;;
38366;Laerm;943;51.568;6.998;2023-04-15T03:22:56;44.89;40.58;52.46;;
38366;Laerm;943;51.568;6.998;2023-04-15T03:25:24;46.08;41.73;52.95;;
38366;Laerm;943;51.568;6.998;2023-04-15T03:27:52;48.21;41.19;63.06;;
38366;Laerm;943;51.568;6.998;2023-04-15T03:30:20;49.05;41.89;62.81;;
38366;Laerm;943;51.568;6.998;2023-04-15T03:32:48;49.31;39.84;64.53;;
38366;Laerm;943;51.568;6.998;2023-04-15T03:35:16;50.61;40.18;68.45;;
38366;Laerm;943;51.568;6.998;2023-04-15T03:37:43;53.82;40.28;66.89;;
38366;Laerm;943;51.568;6.998;2023-04-15T03:40:12;56.57;38.78;69.35;;
38366;Laerm;943;51.568;6.998;2023-04-15T03:42:40;57.13;41.95;69.36;;
38366;Laerm;943;51.568;6.998;2023-04-15T03:45:08;57.27;41.53;68.63;;
38366;Laerm;943;51.568;6.998;2023-04-15T03:47:36;56.53;42.47;67.23;;
38366;Laerm;943;51.568;6.998;2023-04-15T03:50:05;55.76;44.27;67.72;;
38366;Laerm;943;51.568;6.998;2023-04-15T03:52:34;55.34;40.45;70.73;;
38366;Laerm;943;51.568;6.998;2023-04-15T03:55:02;56.60;42.67;70.16;;
38366;Laerm;943;51.568;6.998;2023-04-15T03:57:30;55.19;41.73;66.65;;
38366;Laerm;943;51.568;6.998;2023-04-15T03:59:57;57.94;43.11;71.35;;
38366;Laerm;943;51.568;6.998;2023-04-15T04:02:25;58.21;42.49;73.17;;
38366;Laerm;943;51.568;6.998;2023-04-15T04:04:54;57.40;42.96;71.42;;
38366;Laerm;943;51.568;6.998;2023-04-15T04:07:23;57.31;41.65;68.50;;
38366;Laerm;943;51.568;6.998;2023-04-15T04:09:51;55.56;41.72;68.09;;
38366;Laerm;943;51.568;6.998;2023-04-15T04:12:19;49.10;40.60;61.71;;
38366;Laerm;943;51.568;6.998;2023-04-15T04:14:47;50.14;42.68;60.02;;
38366;Laerm;943;51.568;6.998;2023-04-15T04:17:14;49.90;41.70;63.18;;
38366;Laerm;943;51.568;6.998;2023-04-15T04:19:42;54.92;41.81;69.88;;
38366;Laerm;943;51.568;6.998;2023-04-15T04:22:10;59.25;40.87;72.96;;
38366;Laerm;943;51.568;6.998;2023-04-15T04:24:37;57.01;41.70;71.69;;
38366;Laerm;943;51.568;6.998;2023-04-15T04:27:05;50.48;41.72;69.56;;
38366;Laerm;943;51.568;6.998;2023-04-15T04:29:32;50.18;42.83;69.02;;
38366;Laerm;943;51.568;6.998;2023-04-15T04:32:00;48.78;42.64;62.93;;
38366;Laerm;943;51.568;6.998;2023-04-15T04:34:28;48.51;41.89;57.62;;
38366;Laerm;943;51.568;6.998;2023-04-15T04:36:56;48.33;40.99;59.48;;
38366;Laerm;943;51.568;6.998;2023-04-15T04:39:24;49.14;41.34;59.02;;
38366;Laerm;943;51.568;6.998;2023-04-15T04:41:52;49.35;41.09;66.88;;
38366;Laerm;943;51.568;6.998;2023-04-15T04:44:20;47.02;40.00;57.69;;
38366;Laerm;943;51.568;6.998;2023-04-15T04:46:48;47.38;40.52;57.86;;
38366;Laerm;943;51.568;6.998;2023-04-15T04:49:16;50.53;42.04;66.84;;
38366;Laerm;943;51.568;6.998;2023-04-15T04:51:43;50.87;40.80;67.40;;
38366;Laerm;943;51.568;6.998;2023-04-15T04:54:11;45.62;39.81;60.82;;
38366;Laerm;943;51.568;6.998;2023-04-15T04:56:39;46.93;41.26;54.30;;
38366;Laerm;943;51.568;6.998;2023-04-15T04:59:06;46.43;40.73;57.17;;
38366;Laerm;943;51.568;6.998;2023-04-15T05:01:34;47.09;41.55;58.92;;
38366;Laerm;943;51.568;6.998;2023-04-15T05:04:02;46.81;41.96;68.55;;
38366;Laerm;943;51.568;6.998;2023-04-15T05:06:32;46.83;41.84;60.89;;
38366;Laerm;943;51.568;6.998;2023-04-15T05:09:01;52.28;41.64;65.57;;
38366;Laerm;943;51.568;6.998;2023-04-15T05:11:30;49.12;42.75;63.92;;
38366;Laerm;943;51.568;6.998;2023-04-15T05:13:57;50.01;42.40;67.54;;
38366;Laerm;943;51.568;6.998;2023-04-15T05:16:28;46.19;41.97;54.59;;
38366;Laerm;943;51.568;6.998;2023-04-15T05:18:55;50.61;41.11;64.15;;
38366;Laerm;943;51.568;6.998;2023-04-15T05:21:23;47.30;41.10;59.71;;
38366;Laerm;943;51.568;6.998;2023-04-15T05:23:51;49.11;42.30;65.29;;
38366;Laerm;943;51.568;6.998;2023-04-15T05:26:18;51.44;42.70;67.48;;
38366;Laerm;943;51.568;6.998;2023-04-15T05:28:47;51.27;41.46;65.79;;
38366;Laerm;943;51.568;6.998;2023-04-15T05:31:16;50.14;40.65;65.82;;
38366;Laerm;943;51.568;6.998;2023-04-15T05:33:43;47.02;41.45;58.28;;
38366;Laerm;943;51.568;6.998;2023-04-15T05:36:11;49.27;41.75;59.75;;
38366;Laerm;943;51.568;6.998;2023-04-15T05:38:39;47.73;42.86;60.37;;
38366;Laerm;943;51.568;6.998;2023-04-15T05:41:08;48.90;43.96;56.47;;
38366;Laerm;943;51.568;6.998;2023-04-15T05:43:35;51.03;42.03;76.13;;
38366;Laerm;943;51.568;6.998;2023-04-15T05:46:04;50.85;42.40;66.12;;
38366;Laerm;943;51.568;6.998;2023-04-15T05:48:31;50.57;44.03;69.36;;
38366;Laerm;943;51.568;6.998;2023-04-15T05:51:00;48.89;42.64;59.52;;
38366;Laerm;943;51.568;6.998;2023-04-15T05:53:28;49.92;44.73;71.91;;
38366;Laerm;943;51.568;6.998;2023-04-15T05:55:55;49.39;45.06;57.18;;
38366;Laerm;943;51.568;6.998;2023-04-15T05:58:23;47.91;42.74;61.78;;
38366;Laerm;943;51.568;6.998;2023-04-15T06:00:51;45.87;41.11;57.14;;
38366;Laerm;943;51.568;6.998;2023-04-15T06:03:19;48.52;41.89;65.33;;
38366;Laerm;943;51.568;6.998;2023-04-15T06:05:46;48.14;44.06;56.57;;
38366;Laerm;943;51.568;6.998;2023-04-15T06:08:14;46.89;42.31;54.02;;
38366;Laerm;943;51.568;6.998;2023-04-15T06:10:42;47.91;42.79;60.79;;
38366;Laerm;943;51.568;6.998;2023-04-15T06:13:10;55.21;43.14;81.90;;
38366;Laerm;943;51.568;6.998;2023-04-15T06:15:37;53.15;41.04;71.46;;
38366;Laerm;943;51.568;6.998;2023-04-15T06:18:05;47.81;41.93;55.35;;
38366;Laerm;943;51.568;6.998;2023-04-15T06:20:33;50.37;43.50;66.09;;
38366;Laerm;943;51.568;6.998;2023-04-15T06:23:00;49.31;45.10;56.86;;
38366;Laerm;943;51.568;6.998;2023-04-15T06:25:28;48.01;42.64;57.37;;
38366;Laerm;943;51.568;6.998;2023-04-15T06:27:55;48.71;43.99;59.30;;
38366;Laerm;943;51.568;6.998;2023-04-15T06:30:23;49.81;42.57;67.51;;
38366;Laerm;943;51.568;6.998;2023-04-15T06:32:51;48.05;42.49;65.90;;
38366;Laerm;943;51.568;6.998;2023-04-15T06:35:19;47.81;41.12;59.61;;
38366;Laerm;943;51.568;6.998;2023-04-15T06:37:46;47.19;42.98;58.27;;
38366;Laerm;943;51.568;6.998;2023-04-15T06:40:14;53.52;42.86;73.23;;
38366;Laerm;943;51.568;6.998;2023-04-15T06:42:42;48.78;42.50;61.69;;
38366;Laerm;943;51.568;6.998;2023-04-15T06:45:10;46.88;42.52;58.56;;
38366;Laerm;943;51.568;6.998;2023-04-15T06:47:38;49.11;42.08;64.99;;
38366;Laerm;943;51.568;6.998;2023-04-15T06:50:06;51.25;43.74;62.09;;
38366;Laerm;943;51.568;6.998;2023-04-15T06:52:35;49.21;43.23;64.21;;
38366;Laerm;943;51.568;6.998;2023-04-15T06:55:04;49.00;44.05;60.98;;
38366;Laerm;943;51.568;6.998;2023-04-15T06:57:32;50.70;44.10;63.31;;
38366;Laerm;943;51.568;6.998;2023-04-15T07:00:02;49.75;43.75;63.12;;
38366;Laerm;943;51.568;6.998;2023-04-15T07:02:32;50.31;42.01;64.09;;
38366;Laerm;943;51.568;6.998;2023-04-15T07:05:00;47.77;43.45;59.56;;
38366;Laerm;943;51.568;6.998;2023-04-15T07:07:28;48.02;41.79;58.01;;
38366;Laerm;943;51.568;6.998;2023-04-15T07:09:55;50.54;43.36;63.20;;
38366;Laerm;943;51.568;6.998;2023-04-15T07:12:25;49.17;43.90;59.14;;
38366;Laerm;943;51.568;6.998;2023-04-15T07:14:52;48.28;43.09;61.62;;
38366;Laerm;943;51.568;6.998;2023-04-15T07:17:20;48.51;42.74;60.10;;
38366;Laerm;943;51.568;6.998;2023-04-15T07:19:48;49.55;43.56;64.63;;
38366;Laerm;943;51.568;6.998;2023-04-15T07:22:16;50.29;43.41;66.42;;
38366;Laerm;943;51.568;6.998;2023-04-15T07:24:44;50.74;44.97;61.40;;
38366;Laerm;943;51.568;6.998;2023-04-15T07:27:12;49.84;43.02;66.86;;
38366;Laerm;943;51.568;6.998;2023-04-15T07:29:39;52.56;42.46;68.39;;
38366;Laerm;943;51.568;6.998;2023-04-15T07:32:07;59.80;44.86;78.99;;
38366;Laerm;943;51.568;6.998;2023-04-15T07:34:38;48.73;43.17;66.64;;
38366;Laerm;943;51.568;6.998;2023-04-15T07:37:12;49.05;43.43;69.06;;
38366;Laerm;943;51.568;6.998;2023-04-15T07:39:46;51.19;43.11;62.40;;
38366;Laerm;943;51.568;6.998;2023-04-15T07:42:18;51.98;44.11;76.43;;
38366;Laerm;943;51.568;6.998;2023-04-15T07:44:53;48.69;44.48;65.81;;
38366;Laerm;943;51.568;6.998;2023-04-15T07:47:35;47.72;42.60;67.05;;
38366;Laerm;943;51.568;6.998;2023-04-15T07:50:09;48.43;42.09;60.95;;
38366;Laerm;943;51.568;6.998;2023-04-15T07:52:53;47.14;41.18;61.78;;
38366;Laerm;943;51.568;6.998;2023-04-15T07:55:27;61.72;41.95;82.02;;
38366;Laerm;943;51.568;6.998;2023-04-15T07:58:10;54.57;41.89;71.06;;
38366;Laerm;943;51.568;6.998;2023-04-15T08:00:42;47.16;42.62;60.23;;
38366;Laerm;943;51.568;6.998;2023-04-15T08:03:15;64.54;42.30;85.35;;
38366;Laerm;943;51.568;6.998;2023-04-15T08:05:56;62.99;42.18;85.06;;
38366;Laerm;943;51.568;6.998;2023-04-15T08:08:29;53.03;45.24;75.02;;
38366;Laerm;943;51.568;6.998;2023-04-15T08:11:03;50.83;44.30;73.33;;
38366;Laerm;943;51.568;6.998;2023-04-15T08:13:38;53.75;43.13;74.82;;
38366;Laerm;943;51.568;6.998;2023-04-15T08:16:25;58.46;43.93;80.97;;
38366;Laerm;943;51.568;6.998;2023-04-15T08:19:03;55.57;41.85;76.52;;
38366;Laerm;943;51.568;6.998;2023-04-15T08:21:38;62.90;42.43;85.50;;
38366;Laerm;943;51.568;6.998;2023-04-15T08:24:14;48.09;41.06;72.50;;
38366;Laerm;943;51.568;6.998;2023-04-15T08:26:49;73.17;43.18;91.35;;
38366;Laerm;943;51.568;6.998;2023-04-15T08:29:24;60.91;42.81;84.67;;
38366;Laerm;943;51.568;6.998;2023-04-15T08:31:59;67.84;43.87;92.23;;
38366;Laerm;943;51.568;6.998;2023-04-15T08:34:45;73.15;42.44;94.61;;
38366;Laerm;943;51.568;6.998;2023-04-15T08:37:17;71.42;42.33;92.02;;
38366;Laerm;943;51.568;6.998;2023-04-15T08:39:45;49.89;41.78;72.97;;
38366;Laerm;943;51.568;6.998;2023-04-15T08:42:22;70.48;43.47;91.76;;
38366;Laerm;943;51.568;6.998;2023-04-15T08:44:55;49.21;43.69;68.53;;
38366;Laerm;943;51.568;6.998;2023-04-15T08:47:30;66.91;42.34;87.68;;
38366;Laerm;943;51.568;6.998;2023-04-15T08:50:02;64.81;44.57;85.81;;
38366;Laerm;943;51.568;6.998;2023-04-15T08:52:31;70.49;43.97;88.76;;
38366;Laerm;943;51.568;6.998;2023-04-15T08:55:02;51.68;42.92;72.87;;
38366;Laerm;943;51.568;6.998;2023-04-15T08:57:33;67.81;42.30;87.43;;
38366;Laerm;943;51.568;6.998;2023-04-15T09:00:04;59.80;42.63;78.24;;
38366;Laerm;943;51.568;6.998;2023-04-15T09:02:33;47.08;42.95;62.11;;
38366;Laerm;943;51.568;6.998;2023-04-15T09:05:02;63.75;42.33;88.60;;
38366;Laerm;943;51.568;6.998;2023-04-15T09:07:35;77.24;43.90;93.18;;
38366;Laerm;943;51.568;6.998;2023-04-15T09:10:05;73.26;43.03;90.96;;
38366;Laerm;943;51.568;6.998;2023-04-15T09:12:36;67.01;44.35;87.08;;
38366;Laerm;943;51.568;6.998;2023-04-15T09:15:07;49.79;44.72;60.67;;
38366;Laerm;943;51.568;6.998;2023-04-15T09:17:43;49.62;44.68;62.42;;
38366;Laerm;943;51.568;6.998;2023-04-15T09:20:15;49.88;42.04;62.38;;
38366;Laerm;943;51.568;6.998;2023-04-15T09:22:48;52.52;44.96;68.63;;
38366;Laerm;943;51.568;6.998;2023-04-15T09:28:02;47.24;42.37;66.25;;
38366;Laerm;943;51.568;6.998;2023-04-15T09:30:31;49.35;42.50;72.02;;
38366;Laerm;943;51.568;6.998;2023-04-15T09:33:03;56.73;43.77;80.15;;
38366;Laerm;943;51.568;6.998;2023-04-15T09:35:35;58.89;43.97;83.22;;
38366;Laerm;943;51.568;6.998;2023-04-15T09:38:09;55.15;44.62;69.46;;
38366;Laerm;943;51.568;6.998;2023-04-15T09:40:40;68.22;46.90;94.06;;
38366;Laerm;943;51.568;6.998;2023-04-15T09:43:10;71.69;47.34;90.99;;
38366;Laerm;943;51.568;6.998;2023-04-15T09:45:52;57.47;44.48;78.07;;
38366;Laerm;943;51.568;6.998;2023-04-15T09:48:25;67.23;43.65;92.19;;
38366;Laerm;943;51.568;6.998;2023-04-15T09:50:59;55.21;43.50;79.85;;
38366;Laerm;943;51.568;6.998;2023-04-15T09:53:28;53.38;44.51;74.10;;
38366;Laerm;943;51.568;6.998;2023-04-15T09:56:00;63.13;44.49;86.12;;
38366;Laerm;943;51.568;6.998;2023-04-15T09:58:34;60.16;44.77;85.13;;
38366;Laerm;943;51.568;6.998;2023-04-15T10:01:05;55.00;45.06;76.91;;
38366;Laerm;943;51.568;6.998;2023-04-15T10:03:36;69.06;45.94;89.72;;
38366;Laerm;943;51.568;6.998;2023-04-15T10:06:09;61.94;44.88;86.03;;
38366;Laerm;943;51.568;6.998;2023-04-15T10:08:38;77.95;45.41;95.67;;
38366;Laerm;943;51.568;6.998;2023-04-15T10:11:06;63.40;44.81;83.42;;
38366;Laerm;943;51.568;6.998;2023-04-15T10:13:36;53.98;45.16;77.03;;
38366;Laerm;943;51.568;6.998;2023-04-15T10:16:16;66.06;44.61;88.30;;
38366;Laerm;943;51.568;6.998;2023-04-15T10:18:54;70.91;43.94;89.48;;
38366;Laerm;943;51.568;6.998;2023-04-15T10:21:23;70.92;44.03;90.28;;
38366;Laerm;943;51.568;6.998;2023-04-15T10:23:51;69.86;43.55;86.77;;
38366;Laerm;943;51.568;6.998;2023-04-15T10:26:20;74.84;45.11;91.83;;
38366;Laerm;943;51.568;6.998;2023-04-15T10:28:49;76.36;45.16;93.94;;
38366;Laerm;943;51.568;6.998;2023-04-15T10:31:19;79.93;43.88;99.97;;
38366;Laerm;943;51.568;6.998;2023-04-15T10:33:52;66.09;44.46;88.09;;
38366;Laerm;943;51.568;6.998;2023-04-15T10:36:27;62.34;45.47;84.17;;
38366;Laerm;943;51.568;6.998;2023-04-15T10:39:01;71.60;44.44;89.94;;
38366;Laerm;943;51.568;6.998;2023-04-15T10:41:40;57.66;45.89;78.63;;
38366;Laerm;943;51.568;6.998;2023-04-15T10:44:16;53.39;44.79;74.93;;
38366;Laerm;943;51.568;6.998;2023-04-15T10:46:52;65.17;46.01;84.31;;
38366;Laerm;943;51.568;6.998;2023-04-15T10:49:27;53.24;43.89;78.28;;
38366;Laerm;943;51.568;6.998;2023-04-15T10:52:20;63.06;43.14;87.56;;
38366;Laerm;943;51.568;6.998;2023-04-15T10:55:26;51.29;42.77;69.25;;
38366;Laerm;943;51.568;6.998;2023-04-15T10:58:03;62.01;45.33;84.81;;
38366;Laerm;943;51.568;6.998;2023-04-15T11:00:38;56.45;44.50;76.86;;
38366;Laerm;943;51.568;6.998;2023-04-15T11:03:36;75.12;44.62;92.35;;
38366;Laerm;943;51.568;6.998;2023-04-15T11:06:10;55.37;43.21;81.19;;
38366;Laerm;943;51.568;6.998;2023-04-15T11:09:00;72.25;43.46;89.75;;
38366;Laerm;943;51.568;6.998;2023-04-15T11:12:09;51.86;43.78;80.08;;
38366;Laerm;943;51.568;6.998;2023-04-15T11:14:47;70.57;45.03;90.39;;
38366;Laerm;943;51.568;6.998;2023-04-15T11:17:28;74.29;44.73;92.64;;
38366;Laerm;943;51.568;6.998;2023-04-15T11:20:00;63.61;45.37;88.97;;
38366;Laerm;943;51.568;6.998;2023-04-15T11:22:28;77.19;44.87;94.54;;
38366;Laerm;943;51.568;6.998;2023-04-15T11:24:56;67.22;44.13;87.81;;
38366;Laerm;943;51.568;6.998;2023-04-15T11:27:25;61.00;44.69;85.68;;
38366;Laerm;943;51.568;6.998;2023-04-15T11:29:56;57.07;44.41;82.32;;
38366;Laerm;943;51.568;6.998;2023-04-15T11:32:43;68.14;43.97;89.06;;
38366;Laerm;943;51.568;6.998;2023-04-15T11:35:18;69.60;45.35;88.18;;
38366;Laerm;943;51.568;6.998;2023-04-15T11:38:05;76.68;45.45;93.02;;
38366;Laerm;943;51.568;6.998;2023-04-15T11:40:44;67.99;48.70;90.40;;
38366;Laerm;943;51.568;6.998;2023-04-15T11:43:32;65.68;46.06;83.87;;
38366;Laerm;943;51.568;6.998;2023-04-15T11:46:04;81.33;53.85;97.98;;
38366;Laerm;943;51.568;6.998;2023-04-15T11:48:35;72.23;45.65;89.36;;
38366;Laerm;943;51.568;6.998;2023-04-15T11:51:06;71.88;44.23;91.28;;
38366;Laerm;943;51.568;6.998;2023-04-15T11:53:49;64.35;45.93;84.13;;
38366;Laerm;943;51.568;6.998;2023-04-15T11:56:26;72.38;44.53;90.68;;
38366;Laerm;943;51.568;6.998;2023-04-15T11:58:58;80.24;44.37;94.96;;
38366;Laerm;943;51.568;6.998;2023-04-15T12:01:38;59.83;44.92;81.76;;
38366;Laerm;943;51.568;6.998;2023-04-15T12:04:17;54.63;45.60;74.51;;
38366;Laerm;943;51.568;6.998;2023-04-15T12:07:04;54.47;44.09;74.00;;
38366;Laerm;943;51.568;6.998;2023-04-15T12:09:42;66.92;50.06;86.39;;
38366;Laerm;943;51.568;6.998;2023-04-15T12:12:18;59.20;50.23;78.20;;
38366;Laerm;943;51.568;6.998;2023-04-15T12:14:55;72.59;45.86;92.76;;
38366;Laerm;943;51.568;6.998;2023-04-15T12:17:30;72.00;50.23;93.42;;
38366;Laerm;943;51.568;6.998;2023-04-15T12:20:25;74.62;46.10;94.12;;
38366;Laerm;943;51.568;6.998;2023-04-15T12:23:04;67.34;45.57;85.13;;
38366;Laerm;943;51.568;6.998;2023-04-15T12:25:35;71.85;46.23;94.35;;
38366;Laerm;943;51.568;6.998;2023-04-15T12:28:10;74.97;44.61;93.59;;
38366;Laerm;943;51.568;6.998;2023-04-15T12:30:49;69.84;44.09;87.53;;
38366;Laerm;943;51.568;6.998;2023-04-15T12:33:21;69.61;44.74;88.75;;
38366;Laerm;943;51.568;6.998;2023-04-15T12:35:49;70.32;45.32;92.93;;
38366;Laerm;943;51.568;6.998;2023-04-15T12:38:16;75.42;46.62;93.37;;
38366;Laerm;943;51.568;6.998;2023-04-15T12:40:46;64.37;45.38;85.94;;
38366;Laerm;943;51.568;6.998;2023-04-15T12:43:14;60.15;44.56;80.76;;
38366;Laerm;943;51.568;6.998;2023-04-15T12:45:42;69.28;45.02;89.42;;
38366;Laerm;943;51.568;6.998;2023-04-15T12:48:10;56.91;43.35;77.78;;
38366;Laerm;943;51.568;6.998;2023-04-15T12:50:37;62.31;43.79;86.13;;
38366;Laerm;943;51.568;6.998;2023-04-15T12:53:05;53.08;42.85;76.03;;
38366;Laerm;943;51.568;6.998;2023-04-15T12:55:33;58.66;43.52;81.91;;
38366;Laerm;943;51.568;6.998;2023-04-15T12:58:01;61.40;45.05;84.27;;
38366;Laerm;943;51.568;6.998;2023-04-15T13:00:29;73.95;43.33;94.35;;
38366;Laerm;943;51.568;6.998;2023-04-15T13:02:57;69.49;43.50;83.98;;
38366;Laerm;943;51.568;6.998;2023-04-15T13:05:24;73.52;43.67;92.90;;
38366;Laerm;943;51.568;6.998;2023-04-15T13:07:52;66.79;45.23;86.22;;
38366;Laerm;943;51.568;6.998;2023-04-15T13:10:24;77.51;44.93;92.47;;
38366;Laerm;943;51.568;6.998;2023-04-15T13:12:54;76.78;44.88;91.23;;
38366;Laerm;943;51.568;6.998;2023-04-15T13:15:23;69.60;43.57;90.65;;
38366;Laerm;943;51.568;6.998;2023-04-15T13:17:52;74.71;43.19;92.21;;
38366;Laerm;943;51.568;6.998;2023-04-15T13:20:20;72.18;44.65;89.84;;
38366;Laerm;943;51.568;6.998;2023-04-15T13:22:48;64.72;44.28;83.60;;
38366;Laerm;943;51.568;6.998;2023-04-15T13:25:16;73.12;44.75;92.68;;
38366;Laerm;943;51.568;6.998;2023-04-15T13:27:44;54.70;45.19;76.38;;
38366;Laerm;943;51.568;6.998;2023-04-15T13:30:12;67.06;45.19;84.59;;
38366;Laerm;943;51.568;6.998;2023-04-15T13:32:40;66.93;45.63;86.54;;
38366;Laerm;943;51.568;6.998;2023-04-15T13:35:08;53.44;45.88;76.06;;
38366;Laerm;943;51.568;6.998;2023-04-15T13:37:36;74.09;45.14;94.34;;
38366;Laerm;943;51.568;6.998;2023-04-15T13:40:05;62.89;45.12;84.95;;
38366;Laerm;943;51.568;6.998;2023-04-15T13:42:33;53.10;44.43;72.54;;
38366;Laerm;943;51.568;6.998;2023-04-15T13:45:02;52.56;44.41;69.94;;
38366;Laerm;943;51.568;6.998;2023-04-15T13:47:30;74.68;46.07;93.53;;
38366;Laerm;943;51.568;6.998;2023-04-15T13:49:57;74.50;45.02;90.74;;
38366;Laerm;943;51.568;6.998;2023-04-15T13:52:25;65.67;43.95;89.37;;
38366;Laerm;943;51.568;6.998;2023-04-15T13:54:53;66.52;44.40;88.35;;
38366;Laerm;943;51.568;6.998;2023-04-15T13:57:41;51.41;42.70;75.06;;
38366;Laerm;943;51.568;6.998;2023-04-15T14:00:10;78.45;45.20;96.30;;
38366;Laerm;943;51.568;6.998;2023-04-15T14:02:39;62.62;44.02;84.44;;
38366;Laerm;943;51.568;6.998;2023-04-15T14:05:10;69.17;45.47;90.76;;
38366;Laerm;943;51.568;6.998;2023-04-15T14:07:38;48.01;43.53;59.65;;
38366;Laerm;943;51.568;6.998;2023-04-15T14:10:07;48.54;43.86;63.43;;
38366;Laerm;943;51.568;6.998;2023-04-15T14:12:35;66.94;44.11;86.17;;
38366;Laerm;943;51.568;6.998;2023-04-15T14:15:05;47.61;43.08;58.70;;
38366;Laerm;943;51.568;6.998;2023-04-15T14:17:34;63.29;43.26;83.09;;
38366;Laerm;943;51.568;6.998;2023-04-15T14:20:02;61.20;45.04;81.19;;
38366;Laerm;943;51.568;6.998;2023-04-15T14:22:30;55.23;43.55;77.53;;
38366;Laerm;943;51.568;6.998;2023-04-15T14:24:58;59.61;44.51;79.93;;
38366;Laerm;943;51.568;6.998;2023-04-15T14:27:27;55.34;44.60;77.74;;
38366;Laerm;943;51.568;6.998;2023-04-15T14:29:55;61.23;44.83;83.95;;
38366;Laerm;943;51.568;6.998;2023-04-15T14:32:26;50.43;43.74;68.43;;